Time;durP1;ratioP1;P1;durP2;ratioP2;P2;SDS_P1;SDS_P2;PMS_P1;PMS_P2;Temp;Humidity;BMP_temperature;BMP_pressure;BME280_temperature;BME280_humidity;BME280_pressure;Samples;Min_cycle;Max_cycle;Signal;HPM_P1;HPM_P2
2023/06/19 00:01:17;;;;;;;9.83;9.00;;;;;;;;;;5036513;28;20449;-61
2023/06/19 00:03:44;;;;;;;11.03;9.83;;;;;;;;;;5036829;28;20441;-61
2023/06/19 00:06:12;;;;;;;9.93;8.87;;;;;;;;;;5036680;28;20448;-61
2023/06/19 00:08:41;;;;;;;10.63;9.70;;;;;;;;;;5036734;28;20445;-60
2023/06/19 00:11:08;;;;;;;10.03;9.03;;;;;;;;;;5036596;28;20457;-61
2023/06/19 00:13:35;;;;;;;10.27;9.43;;;;;;;;;;5036608;28;20468;-61
2023/06/19 00:16:02;;;;;;;9.33;8.40;;;;;;;;;;5036213;28;20463;-61
2023/06/19 00:18:39;;;;;;;9.87;9.07;;;;;;;;;;5036612;28;20441;-61
2023/06/19 00:21:07;;;;;;;9.90;8.80;;;;;;;;;;5036800;28;20428;-61
2023/06/19 00:23:35;;;;;;;10.27;9.23;;;;;;;;;;5036171;28;20489;-60
2023/06/19 00:26:03;;;;;;;10.40;9.40;;;;;;;;;;5036371;28;20441;-61
2023/06/19 00:28:30;;;;;;;9.83;8.83;;;;;;;;;;5036649;28;20441;-61
2023/06/19 00:30:57;;;;;;;11.00;9.23;;;;;;;;;;5036301;28;20451;-60
2023/06/19 00:33:24;;;;;;;10.10;9.00;;;;;;;;;;5035823;28;20477;-61
2023/06/19 00:35:54;;;;;;;10.50;9.50;;;;;;;;;;5035941;28;20940;-60
2023/06/19 00:38:21;;;;;;;9.37;8.67;;;;;;;;;;5036214;28;20844;-61
2023/06/19 00:40:48;;;;;;;11.20;9.53;;;;;;;;;;5035797;28;20966;-62
2023/06/19 00:43:15;;;;;;;9.50;8.70;;;;;;;;;;5036045;28;20444;-63
2023/06/19 00:45:42;;;;;;;9.27;8.47;;;;;;;;;;5035258;28;20477;-61
2023/06/19 00:48:10;;;;;;;11.33;10.33;;;;;;;;;;5034087;28;20446;-61
2023/06/19 00:50:38;;;;;;;9.63;8.83;;;;;;;;;;5034880;28;20806;-61
2023/06/19 00:53:07;;;;;;;10.40;9.20;;;;;;;;;;5034342;28;20438;-61
2023/06/19 00:55:35;;;;;;;10.67;9.67;;;;;;;;;;5034861;28;20506;-60
2023/06/19 00:58:02;;;;;;;9.30;8.40;;;;;;;;;;5034574;28;20961;-61
2023/06/19 01:00:30;;;;;;;10.60;9.70;;;;;;;;;;5034955;28;20468;-61
2023/06/19 01:02:57;;;;;;;11.03;10.13;;;;;;;;;;5034913;28;20452;-61
2023/06/19 01:05:24;;;;;;;9.53;8.70;;;;;;;;;;5034596;28;20448;-60
2023/06/19 01:07:54;;;;;;;9.93;9.00;;;;;;;;;;5034471;28;20446;-61
2023/06/19 01:10:26;;;;;;;9.80;8.90;;;;;;;;;;5034486;28;20443;-61
2023/06/19 01:12:56;;;;;;;9.80;8.80;;;;;;;;;;5034505;28;20760;-61
2023/06/19 01:15:24;;;;;;;10.07;9.17;;;;;;;;;;5035084;28;20497;-61
2023/06/19 01:17:51;;;;;;;9.30;8.43;;;;;;;;;;5033911;28;20449;-61
2023/06/19 01:20:18;;;;;;;10.03;9.07;;;;;;;;;;5034910;28;20449;-61
2023/06/19 01:22:47;;;;;;;9.03;8.17;;;;;;;;;;5033981;28;20502;-61
2023/06/19 01:25:14;;;;;;;10.60;9.60;;;;;;;;;;5034324;28;20467;-61
2023/06/19 01:27:42;;;;;;;9.20;8.30;;;;;;;;;;5033841;28;20537;-61
2023/06/19 01:30:10;;;;;;;10.93;8.70;;;;;;;;;;5033937;28;20452;-61
2023/06/19 01:32:41;;;;;;;9.20;8.40;;;;;;;;;;5034161;28;20446;-61
2023/06/19 01:35:09;;;;;;;9.53;8.73;;;;;;;;;;5034148;28;20483;-61
2023/06/19 01:37:37;;;;;;;10.13;9.13;;;;;;;;;;5033994;28;20467;-61
2023/06/19 01:40:09;;;;;;;9.00;8.20;;;;;;;;;;5034077;28;20454;-61
2023/06/19 01:42:37;;;;;;;11.10;8.53;;;;;;;;;;5034026;28;20520;-61
2023/06/19 01:45:04;;;;;;;9.23;8.30;;;;;;;;;;4996518;28;1081052;-61
2023/06/19 01:47:32;;;;;;;11.30;8.47;;;;;;;;;;5034868;28;20184;-61
2023/06/19 01:49:59;;;;;;;9.50;8.70;;;;;;;;;;5035111;28;20448;-61
2023/06/19 01:52:26;;;;;;;9.40;8.60;;;;;;;;;;5035013;28;20443;-61
2023/06/19 01:54:53;;;;;;;8.13;7.43;;;;;;;;;;5034672;28;20486;-61
2023/06/19 01:57:22;;;;;;;8.30;7.60;;;;;;;;;;5034918;28;20522;-61
2023/06/19 01:59:49;;;;;;;9.93;8.53;;;;;;;;;;5033836;28;20451;-61
2023/06/19 02:02:16;;;;;;;8.90;8.10;;;;;;;;;;5034124;28;20455;-61
2023/06/19 02:04:43;;;;;;;10.13;9.23;;;;;;;;;;5034911;28;20807;-61
2023/06/19 02:07:10;;;;;;;9.03;8.13;;;;;;;;;;5034713;28;20500;-61
2023/06/19 02:09:37;;;;;;;8.93;8.03;;;;;;;;;;5034433;28;20463;-61
2023/06/19 02:12:05;;;;;;;10.00;8.50;;;;;;;;;;5034151;28;20444;-61
2023/06/19 02:14:33;;;;;;;9.87;8.93;;;;;;;;;;5033821;28;20487;-61
2023/06/19 02:17:01;;;;;;;9.40;8.60;;;;;;;;;;5034091;28;20511;-61
2023/06/19 02:19:28;;;;;;;10.20;8.03;;;;;;;;;;5034268;28;20452;-61
2023/06/19 02:21:55;;;;;;;9.73;8.80;;;;;;;;;;5034654;28;20454;-62
2023/06/19 02:24:22;;;;;;;9.63;8.73;;;;;;;;;;5034237;28;20452;-61
2023/06/19 02:26:49;;;;;;;9.40;8.60;;;;;;;;;;5033911;28;20543;-61
2023/06/19 02:29:16;;;;;;;9.77;8.87;;;;;;;;;;5034068;28;20437;-61
2023/06/19 02:31:45;;;;;;;8.70;8.00;;;;;;;;;;5033981;28;20459;-61
2023/06/19 02:34:13;;;;;;;10.43;8.23;;;;;;;;;;5033998;28;20833;-62
2023/06/19 02:36:40;;;;;;;9.90;9.00;;;;;;;;;;5034023;28;20457;-61
2023/06/19 02:39:07;;;;;;;8.87;8.17;;;;;;;;;;5033899;28;20448;-61
2023/06/19 02:41:34;;;;;;;10.10;8.60;;;;;;;;;;5033906;28;20447;-61
2023/06/19 02:44:01;;;;;;;9.77;8.77;;;;;;;;;;5033485;28;20458;-61
2023/06/19 02:46:29;;;;;;;9.60;8.70;;;;;;;;;;5033468;28;20625;-61
2023/06/19 02:48:57;;;;;;;8.70;8.00;;;;;;;;;;5034074;28;20443;-61
2023/06/19 02:51:24;;;;;;;8.73;8.03;;;;;;;;;;5034825;28;20450;-61
2023/06/19 02:53:51;;;;;;;9.60;8.80;;;;;;;;;;5033565;28;20451;-61
2023/06/19 02:56:19;;;;;;;8.67;7.80;;;;;;;;;;5033834;28;20441;-61
2023/06/19 02:58:46;;;;;;;8.70;7.87;;;;;;;;;;5033769;28;20440;-61
2023/06/19 03:01:13;;;;;;;8.50;7.70;;;;;;;;;;5033626;28;20441;-61
2023/06/19 03:03:40;;;;;;;8.80;7.97;;;;;;;;;;5033724;28;20512;-61
2023/06/19 03:06:09;;;;;;;8.50;7.80;;;;;;;;;;5033310;28;20942;-62
2023/06/19 03:08:36;;;;;;;8.87;7.97;;;;;;;;;;5033480;28;20442;-62
2023/06/19 03:11:04;;;;;;;8.87;7.47;;;;;;;;;;5033187;28;20462;-63
2023/06/19 03:13:33;;;;;;;8.40;7.77;;;;;;;;;;5033377;28;20554;-62
2023/06/19 03:16:00;;;;;;;9.47;8.67;;;;;;;;;;5033622;28;20506;-63
2023/06/19 03:18:28;;;;;;;10.00;8.70;;;;;;;;;;5033614;28;20454;-62
2023/06/19 03:20:55;;;;;;;8.97;8.17;;;;;;;;;;5033491;28;20932;-62
2023/06/19 03:23:23;;;;;;;8.87;8.10;;;;;;;;;;5033343;28;20476;-63
2023/06/19 03:25:50;;;;;;;9.07;8.23;;;;;;;;;;5033078;28;20454;-62
2023/06/19 03:28:18;;;;;;;9.00;7.70;;;;;;;;;;5032976;28;20450;-62
2023/06/19 03:30:45;;;;;;;9.60;8.60;;;;;;;;;;5033145;28;20447;-62
2023/06/19 03:33:12;;;;;;;8.93;8.13;;;;;;;;;;5032928;28;20444;-62
2023/06/19 03:35:40;;;;;;;8.40;7.60;;;;;;;;;;5032777;28;20474;-62
2023/06/19 03:38:07;;;;;;;8.73;7.93;;;;;;;;;;5033253;28;20860;-62
2023/06/19 03:40:36;;;;;;;9.17;8.27;;;;;;;;;;5033266;28;20446;-62
2023/06/19 03:43:03;;;;;;;9.03;8.27;;;;;;;;;;5032901;28;20452;-62
2023/06/19 03:45:30;;;;;;;8.83;8.03;;;;;;;;;;5032610;28;20475;-62
2023/06/19 03:47:57;;;;;;;7.63;7.03;;;;;;;;;;5032838;28;20448;-62
2023/06/19 03:50:25;;;;;;;8.80;7.90;;;;;;;;;;5032783;28;20445;-62
2023/06/19 03:52:52;;;;;;;7.80;7.10;;;;;;;;;;5012395;28;20447;-62
2023/06/19 03:55:19;;;;;;;8.57;7.67;;;;;;;;;;5012442;28;20486;-62
2023/06/19 03:57:48;;;;;;;7.37;6.67;;;;;;;;;;5012268;28;20448;-62
2023/06/19 04:00:15;;;;;;;7.67;7.07;;;;;;;;;;5012104;28;20445;-62
2023/06/19 04:02:43;;;;;;;8.67;7.87;;;;;;;;;;5012481;28;20456;-62
2023/06/19 04:05:10;;;;;;;8.87;8.07;;;;;;;;;;5012536;28;20462;-62
2023/06/19 04:07:37;;;;;;;8.50;7.70;;;;;;;;;;5012097;28;20978;-62
2023/06/19 04:10:05;;;;;;;9.33;8.43;;;;;;;;;;5012741;28;20506;-62
2023/06/19 04:12:32;;;;;;;8.43;7.63;;;;;;;;;;5012941;28;20448;-61
2023/06/19 04:15:00;;;;;;;9.27;8.47;;;;;;;;;;5012437;28;20496;-62
2023/06/19 04:17:27;;;;;;;10.07;8.87;;;;;;;;;;5012710;28;20448;-63
2023/06/19 04:19:55;;;;;;;9.03;8.13;;;;;;;;;;5012560;28;20439;-63
2023/06/19 04:22:22;;;;;;;9.57;8.67;;;;;;;;;;5012450;28;20455;-62
2023/06/19 04:24:49;;;;;;;8.77;8.03;;;;;;;;;;5015261;28;20481;-61
2023/06/19 04:27:16;;;;;;;10.27;7.83;;;;;;;;;;5015779;28;20530;-61
2023/06/19 04:29:43;;;;;;;9.43;8.53;;;;;;;;;;5016042;28;20462;-61
2023/06/19 04:32:12;;;;;;;9.53;8.50;;;;;;;;;;5016092;28;20446;-61
2023/06/19 04:34:39;;;;;;;8.87;7.97;;;;;;;;;;5016343;28;20479;-60
2023/06/19 04:37:07;;;;;;;8.80;8.00;;;;;;;;;;5016500;28;20449;-61
2023/06/19 04:39:34;;;;;;;8.80;8.00;;;;;;;;;;5016985;28;20449;-61
2023/06/19 04:42:02;;;;;;;8.73;7.90;;;;;;;;;;5016078;28;20501;-61
2023/06/19 04:44:29;;;;;;;7.97;7.37;;;;;;;;;;5016555;28;20449;-60
2023/06/19 04:47:00;;;;;;;8.73;7.83;;;;;;;;;;5016196;28;20760;-61
2023/06/19 04:49:30;;;;;;;9.60;8.70;;;;;;;;;;5015862;28;20447;-61
2023/06/19 04:51:58;;;;;;;7.87;7.07;;;;;;;;;;5015433;28;20456;-61
2023/06/19 04:54:26;;;;;;;8.93;8.00;;;;;;;;;;5015951;28;20448;-61
2023/06/19 04:56:53;;;;;;;8.07;7.27;;;;;;;;;;5015746;28;20449;-61
2023/06/19 04:59:20;;;;;;;7.93;7.13;;;;;;;;;;5016050;28;20503;-61
2023/06/19 05:01:48;;;;;;;8.47;7.70;;;;;;;;;;5015984;28;20441;-61
2023/06/19 05:04:15;;;;;;;8.03;7.27;;;;;;;;;;5016039;28;20447;-61
2023/06/19 05:06:43;;;;;;;7.33;6.50;;;;;;;;;;5015712;28;20484;-61
2023/06/19 05:09:10;;;;;;;7.90;6.23;;;;;;;;;;5015006;28;20518;-61
2023/06/19 05:11:38;;;;;;;7.07;6.33;;;;;;;;;;5014911;28;20945;-61
2023/06/19 05:14:05;;;;;;;8.00;6.40;;;;;;;;;;5015582;28;20437;-61
2023/06/19 05:16:32;;;;;;;7.47;6.77;;;;;;;;;;5015633;28;20472;-60
2023/06/19 05:18:59;;;;;;;7.17;6.50;;;;;;;;;;5015407;28;20485;-61
2023/06/19 05:21:26;;;;;;;7.43;6.73;;;;;;;;;;5015477;28;20447;-61
2023/06/19 05:23:55;;;;;;;6.97;6.37;;;;;;;;;;5015616;28;20447;-61
2023/06/19 05:26:22;;;;;;;6.93;6.33;;;;;;;;;;5015068;28;20448;-61
2023/06/19 05:28:51;;;;;;;6.67;5.97;;;;;;;;;;5014907;28;20447;-61
2023/06/19 05:31:18;;;;;;;6.70;6.10;;;;;;;;;;5014859;28;20443;-61
2023/06/19 05:33:45;;;;;;;6.83;5.80;;;;;;;;;;5015289;28;20451;-61
2023/06/19 05:36:12;;;;;;;6.00;5.50;;;;;;;;;;5014433;28;20564;-61
2023/06/19 05:38:39;;;;;;;6.23;5.63;;;;;;;;;;5015423;28;20448;-61
2023/06/19 05:41:08;;;;;;;6.67;5.83;;;;;;;;;;5014951;28;20444;-61
2023/06/19 05:43:35;;;;;;;6.03;5.50;;;;;;;;;;5015251;28;20523;-61
2023/06/19 05:46:03;;;;;;;5.50;4.90;;;;;;;;;;5015159;28;20475;-61
2023/06/19 05:48:30;;;;;;;9.27;6.20;;;;;;;;;;5015326;28;20474;-61
2023/06/19 05:50:57;;;;;;;9.37;6.00;;;;;;;;;;5015078;28;20445;-61
2023/06/19 05:53:24;;;;;;;6.60;6.00;;;;;;;;;;5015051;28;20933;-61
2023/06/19 05:55:52;;;;;;;6.30;5.70;;;;;;;;;;5014510;28;20576;-61
2023/06/19 05:58:21;;;;;;;7.00;5.20;;;;;;;;;;5014728;28;20447;-61
2023/06/19 06:00:48;;;;;;;6.80;6.07;;;;;;;;;;5014846;28;21001;-61
2023/06/19 06:03:15;;;;;;;6.70;6.00;;;;;;;;;;5014957;28;20446;-61
2023/06/19 06:05:43;;;;;;;6.63;6.03;;;;;;;;;;5014803;28;20450;-61
2023/06/19 06:08:10;;;;;;;7.10;6.30;;;;;;;;;;5014856;28;20451;-61
2023/06/19 06:10:37;;;;;;;6.63;5.47;;;;;;;;;;5014464;28;20936;-61
2023/06/19 06:13:04;;;;;;;7.83;5.17;;;;;;;;;;5014639;28;20490;-61
2023/06/19 06:15:33;;;;;;;6.03;5.40;;;;;;;;;;5014287;28;20478;-61
2023/06/19 06:18:00;;;;;;;5.90;5.30;;;;;;;;;;5014686;28;20824;-61
2023/06/19 06:20:27;;;;;;;5.80;5.30;;;;;;;;;;5014590;28;20439;-61
2023/06/19 06:22:55;;;;;;;5.20;4.70;;;;;;;;;;5014540;28;20469;-60
2023/06/19 06:25:22;;;;;;;5.33;4.83;;;;;;;;;;5014514;28;20486;-61
2023/06/19 06:27:49;;;;;;;4.40;3.93;;;;;;;;;;5014200;28;20941;-61
2023/06/19 06:30:17;;;;;;;6.33;5.43;;;;;;;;;;5014366;28;20947;-61
2023/06/19 06:32:45;;;;;;;4.23;3.90;;;;;;;;;;5014299;28;20485;-61
2023/06/19 06:35:12;;;;;;;5.53;4.27;;;;;;;;;;5013974;28;20472;-61
2023/06/19 06:37:40;;;;;;;6.43;3.90;;;;;;;;;;5013933;28;20474;-60
2023/06/19 06:40:10;;;;;;;4.60;3.93;;;;;;;;;;5014232;28;20497;-61
2023/06/19 06:42:38;;;;;;;3.93;3.53;;;;;;;;;;5013770;28;20489;-61
2023/06/19 06:45:06;;;;;;;4.90;3.67;;;;;;;;;;5013429;28;20507;-61
2023/06/19 06:47:33;;;;;;;4.33;3.93;;;;;;;;;;5013218;28;20910;-61
2023/06/19 06:50:02;;;;;;;4.30;3.83;;;;;;;;;;5013492;28;20440;-60
2023/06/19 06:52:30;;;;;;;4.10;3.43;;;;;;;;;;5014041;28;20441;-60
2023/06/19 06:54:57;;;;;;;3.70;3.33;;;;;;;;;;5014199;28;20546;-61
2023/06/19 06:57:24;;;;;;;6.10;3.23;;;;;;;;;;5014077;28;20444;-61
2023/06/19 06:59:52;;;;;;;4.13;3.73;;;;;;;;;;5013672;28;20451;-60
2023/06/19 07:02:19;;;;;;;4.40;3.90;;;;;;;;;;5014319;28;20804;-61
2023/06/19 07:04:46;;;;;;;3.60;3.33;;;;;;;;;;5014545;28;20443;-61
2023/06/19 07:07:15;;;;;;;3.33;3.13;;;;;;;;;;5014181;28;20851;-61
2023/06/19 07:09:42;;;;;;;3.80;3.40;;;;;;;;;;5014154;28;20443;-61
2023/06/19 07:12:09;;;;;;;3.10;2.90;;;;;;;;;;5014100;28;20454;-60
2023/06/19 07:14:36;;;;;;;3.97;3.13;;;;;;;;;;5014166;28;20530;-61
2023/06/19 07:17:06;;;;;;;4.60;3.40;;;;;;;;;;5013565;28;20481;-61
2023/06/19 07:19:34;;;;;;;3.20;3.00;;;;;;;;;;5013659;28;20506;-61
2023/06/19 07:22:01;;;;;;;4.20;3.40;;;;;;;;;;5013265;28;20451;-60
2023/06/19 07:24:30;;;;;;;4.33;3.27;;;;;;;;;;5013180;28;20455;-61
2023/06/19 07:26:57;;;;;;;3.20;3.00;;;;;;;;;;5013732;28;20443;-61
2023/06/19 07:29:25;;;;;;;3.90;3.43;;;;;;;;;;5013074;28;20448;-60
2023/06/19 07:31:52;;;;;;;7.33;2.93;;;;;;;;;;5013234;28;20458;-61
2023/06/19 07:34:20;;;;;;;11.53;2.77;;;;;;;;;;5014215;28;20450;-61
2023/06/19 07:36:47;;;;;;;2.73;2.53;;;;;;;;;;5013534;28;20531;-60
2023/06/19 07:39:14;;;;;;;2.53;2.33;;;;;;;;;;5013469;28;20463;-60
2023/06/19 07:41:43;;;;;;;3.43;2.30;;;;;;;;;;5013482;28;20440;-61
2023/06/19 07:44:10;;;;;;;2.23;2.10;;;;;;;;;;5012892;28;20449;-61
2023/06/19 07:46:37;;;;;;;3.90;3.50;;;;;;;;;;5013309;28;20477;-60
2023/06/19 07:49:04;;;;;;;2.87;2.67;;;;;;;;;;5013369;28;20452;-61
2023/06/19 07:51:31;;;;;;;3.57;3.13;;;;;;;;;;5013260;28;20940;-61
2023/06/19 07:53:59;;;;;;;4.10;2.77;;;;;;;;;;5013423;28;20540;-61
2023/06/19 07:56:26;;;;;;;2.50;2.30;;;;;;;;;;5013296;28;20488;-61
2023/06/19 07:58:54;;;;;;;4.17;2.60;;;;;;;;;;5014135;28;20502;-62
2023/06/19 08:01:21;;;;;;;5.80;2.63;;;;;;;;;;5017124;28;20447;-61
2023/06/19 08:03:49;;;;;;;2.90;2.70;;;;;;;;;;5016628;28;20437;-61
2023/06/19 08:06:16;;;;;;;2.57;2.37;;;;;;;;;;5016455;28;20452;-61
2023/06/19 08:08:43;;;;;;;3.00;2.53;;;;;;;;;;5016624;28;20926;-61
2023/06/19 08:11:10;;;;;;;3.97;2.50;;;;;;;;;;5017342;28;20934;-61
2023/06/19 08:13:37;;;;;;;2.83;2.63;;;;;;;;;;5016577;28;20446;-60
2023/06/19 08:16:06;;;;;;;3.10;2.80;;;;;;;;;;5016991;28;20985;-61
2023/06/19 08:18:33;;;;;;;2.60;2.40;;;;;;;;;;5016447;28;20454;-61
2023/06/19 08:21:01;;;;;;;3.10;2.50;;;;;;;;;;5017376;28;20462;-60
2023/06/19 08:23:28;;;;;;;3.03;2.83;;;;;;;;;;5017256;28;20455;-61
2023/06/19 08:25:55;;;;;;;5.17;3.00;;;;;;;;;;5016689;28;20459;-63
2023/06/19 08:28:23;;;;;;;2.67;2.47;;;;;;;;;;5016074;28;20444;-60
2023/06/19 08:30:50;;;;;;;5.73;2.70;;;;;;;;;;5016381;28;20453;-61
2023/06/19 08:33:19;;;;;;;5.17;2.97;;;;;;;;;;5016129;28;20443;-61
2023/06/19 08:35:48;;;;;;;6.50;2.90;;;;;;;;;;5015965;28;20482;-61
2023/06/19 08:38:15;;;;;;;2.97;2.73;;;;;;;;;;5015978;28;20447;-61
2023/06/19 08:40:43;;;;;;;10.30;3.20;;;;;;;;;;5016147;28;20447;-61
2023/06/19 08:43:10;;;;;;;3.13;2.93;;;;;;;;;;5016233;28;20440;-61
2023/06/19 08:45:37;;;;;;;2.93;2.73;;;;;;;;;;5016003;28;20487;-61
2023/06/19 08:48:08;;;;;;;5.40;3.47;;;;;;;;;;5016194;28;20447;-61
2023/06/19 08:50:36;;;;;;;3.53;2.77;;;;;;;;;;5016976;28;20507;-61
2023/06/19 08:53:04;;;;;;;3.90;2.70;;;;;;;;;;5016567;28;20461;-61
2023/06/19 08:55:31;;;;;;;4.13;3.77;;;;;;;;;;5016434;28;20454;-61
2023/06/19 08:57:58;;;;;;;3.50;3.00;;;;;;;;;;5016221;28;20448;-61
2023/06/19 09:00:26;;;;;;;5.20;3.20;;;;;;;;;;5016085;28;20455;-61
2023/06/19 09:02:53;;;;;;;2.87;2.63;;;;;;;;;;5015951;28;20449;-61
2023/06/19 09:05:21;;;;;;;3.70;2.87;;;;;;;;;;5016085;28;20488;-61
2023/06/19 09:07:57;;;;;;;4.97;3.37;;;;;;;;;;5016039;28;20452;-61
2023/06/19 09:10:25;;;;;;;3.93;3.27;;;;;;;;;;5015543;28;20856;-61
2023/06/19 09:12:59;;;;;;;3.93;3.00;;;;;;;;;;5015601;28;20446;-61
2023/06/19 09:15:29;;;;;;;3.60;3.30;;;;;;;;;;5015463;28;20512;-61
2023/06/19 09:18:03;;;;;;;4.33;3.33;;;;;;;;;;5015339;28;20488;-61
2023/06/19 09:20:31;;;;;;;4.10;3.57;;;;;;;;;;5015277;28;20521;-61
2023/06/19 09:23:00;;;;;;;8.00;3.97;;;;;;;;;;5015636;28;20501;-61
2023/06/19 09:25:27;;;;;;;6.97;4.60;;;;;;;;;;5015472;28;20532;-61
2023/06/19 09:27:54;;;;;;;4.13;3.60;;;;;;;;;;5015829;28;20452;-61
2023/06/19 09:30:22;;;;;;;5.13;3.73;;;;;;;;;;5015169;28;20999;-61
2023/06/19 09:32:49;;;;;;;3.90;3.53;;;;;;;;;;5015431;28;20442;-61
2023/06/19 09:35:17;;;;;;;4.30;4.00;;;;;;;;;;5015408;28;20453;-61
2023/06/19 09:37:44;;;;;;;4.20;3.90;;;;;;;;;;5014994;28;21061;-61
2023/06/19 09:40:13;;;;;;;5.63;4.53;;;;;;;;;;5015216;28;20458;-61
2023/06/19 09:42:40;;;;;;;4.77;4.30;;;;;;;;;;5015572;28;20447;-60
2023/06/19 09:45:09;;;;;;;5.07;4.67;;;;;;;;;;5014712;28;20515;-61
2023/06/19 09:47:37;;;;;;;5.07;4.67;;;;;;;;;;5015019;28;20435;-60
2023/06/19 09:50:05;;;;;;;5.67;4.37;;;;;;;;;;5015040;28;20453;-61
2023/06/19 09:52:33;;;;;;;4.90;4.50;;;;;;;;;;5014728;28;20440;-61
2023/06/19 09:55:03;;;;;;;8.67;5.00;;;;;;;;;;5014801;28;20437;-61
2023/06/19 09:57:32;;;;;;;3.57;3.27;;;;;;;;;;5014926;28;20485;-61
2023/06/19 10:00:08;;;;;;;3.40;3.10;;;;;;;;;;5014376;28;20453;-61
2023/06/19 10:02:36;;;;;;;4.00;3.60;;;;;;;;;;5015026;28;20461;-61
2023/06/19 10:05:03;;;;;;;4.20;3.77;;;;;;;;;;5014788;28;20446;-61
2023/06/19 10:07:35;;;;;;;4.80;4.17;;;;;;;;;;5014701;28;20446;-61
2023/06/19 10:10:04;;;;;;;8.13;4.40;;;;;;;;;;5014357;28;20438;-61
2023/06/19 10:12:39;;;;;;;4.30;4.00;;;;;;;;;;5014758;28;20810;-61
2023/06/19 10:15:10;;;;;;;3.97;3.67;;;;;;;;;;5014737;28;20446;-61
2023/06/19 10:17:38;;;;;;;4.13;3.73;;;;;;;;;;5014198;28;20473;-61
2023/06/19 10:20:13;;;;;;;4.67;4.27;;;;;;;;;;5014819;28;20450;-61
2023/06/19 10:22:40;;;;;;;8.93;4.87;;;;;;;;;;5014169;28;20529;-61
2023/06/19 10:25:08;;;;;;;5.23;4.73;;;;;;;;;;5014655;28;20439;-61
2023/06/19 10:27:39;;;;;;;4.83;3.80;;;;;;;;;;5014445;28;20464;-61
2023/06/19 10:30:18;;;;;;;4.47;4.07;;;;;;;;;;5014712;28;20423;-61
2023/06/19 10:32:45;;;;;;;3.30;3.00;;;;;;;;;;5014430;28;20429;-61
2023/06/19 10:35:13;;;;;;;3.87;3.50;;;;;;;;;;5014859;28;20452;-61
2023/06/19 10:37:40;;;;;;;3.50;3.30;;;;;;;;;;5014111;28;20883;-61
2023/06/19 10:40:09;;;;;;;4.30;3.90;;;;;;;;;;5014306;28;20451;-61
2023/06/19 10:42:37;;;;;;;6.03;4.27;;;;;;;;;;5013812;28;20454;-61
2023/06/19 10:45:05;;;;;;;8.37;4.13;;;;;;;;;;5013787;28;20483;-61
2023/06/19 10:47:34;;;;;;;5.60;5.00;;;;;;;;;;5014471;28;20445;-61
2023/06/19 10:50:02;;;;;;;5.57;4.00;;;;;;;;;;5014375;28;20450;-61
2023/06/19 10:52:30;;;;;;;7.23;4.33;;;;;;;;;;5014019;28;20809;-61
2023/06/19 10:54:58;;;;;;;5.40;4.50;;;;;;;;;;5014075;28;20439;-61
2023/06/19 10:57:28;;;;;;;5.20;4.70;;;;;;;;;;5013688;28;20479;-61
2023/06/19 10:59:55;;;;;;;5.73;4.57;;;;;;;;;;5013604;28;20446;-61
2023/06/19 11:02:23;;;;;;;5.13;4.53;;;;;;;;;;5013744;28;20466;-61
2023/06/19 11:04:53;;;;;;;5.73;5.30;;;;;;;;;;5013881;28;20466;-61
2023/06/19 11:07:20;;;;;;;5.80;5.30;;;;;;;;;;5014227;28;20458;-61
2023/06/19 11:09:47;;;;;;;7.77;6.00;;;;;;;;;;5013554;28;20450;-61
2023/06/19 11:12:20;;;;;;;7.90;5.37;;;;;;;;;;5013425;28;20450;-60
2023/06/19 11:14:47;;;;;;;9.10;5.07;;;;;;;;;;5013810;28;20791;-61
2023/06/19 11:17:14;;;;;;;4.23;3.93;;;;;;;;;;5013833;28;20492;-61
2023/06/19 11:19:43;;;;;;;5.93;4.53;;;;;;;;;;5013245;28;20446;-61
2023/06/19 11:22:12;;;;;;;4.57;3.90;;;;;;;;;;5013434;28;20439;-61
2023/06/19 11:24:44;;;;;;;4.30;4.00;;;;;;;;;;5013706;28;20530;-61
2023/06/19 11:27:17;;;;;;;5.07;4.20;;;;;;;;;;5013496;28;20445;-61
2023/06/19 11:29:44;;;;;;;4.80;4.27;;;;;;;;;;5013753;28;20910;-61
2023/06/19 11:32:14;;;;;;;5.70;4.33;;;;;;;;;;5013816;28;20617;-61
2023/06/19 11:34:43;;;;;;;4.73;4.33;;;;;;;;;;5017608;28;20443;-60
2023/06/19 11:37:15;;;;;;;4.83;4.43;;;;;;;;;;5017593;28;20532;-61
2023/06/19 11:39:42;;;;;;;8.00;4.80;;;;;;;;;;5017723;28;20833;-61
2023/06/19 11:42:09;;;;;;;4.90;4.50;;;;;;;;;;5017502;28;20525;-61
2023/06/19 11:44:37;;;;;;;4.60;3.63;;;;;;;;;;5017526;28;20460;-61
2023/06/19 11:47:04;;;;;;;5.27;4.20;;;;;;;;;;5017479;28;20485;-61
2023/06/19 11:49:36;;;;;;;4.50;4.10;;;;;;;;;;5017356;28;20522;-61
2023/06/19 11:52:04;;;;;;;4.80;4.30;;;;;;;;;;5017646;28;20437;-61
2023/06/19 11:54:32;;;;;;;4.33;3.43;;;;;;;;;;5017005;28;20939;-61
2023/06/19 11:56:59;;;;;;;7.20;3.70;;;;;;;;;;5017131;28;20486;-61
2023/06/19 11:59:26;;;;;;;4.33;4.03;;;;;;;;;;5017184;28;20443;-61
2023/06/19 12:01:56;;;;;;;4.73;4.10;;;;;;;;;;5016838;28;20452;-61
2023/06/19 12:04:23;;;;;;;5.73;3.77;;;;;;;;;;5017533;28;20945;-61
2023/06/19 12:06:50;;;;;;;5.80;3.47;;;;;;;;;;5017621;28;20449;-61
2023/06/19 12:09:18;;;;;;;3.67;3.37;;;;;;;;;;5017099;28;20585;-61
2023/06/19 12:11:46;;;;;;;4.40;3.67;;;;;;;;;;5016633;28;20490;-61
2023/06/19 12:14:14;;;;;;;3.73;3.40;;;;;;;;;;5016449;28;20449;-64
2023/06/19 12:16:41;;;;;;;4.40;4.10;;;;;;;;;;5016257;28;20443;-60
2023/06/19 12:19:08;;;;;;;4.43;4.03;;;;;;;;;;5016477;28;20447;-60
2023/06/19 12:21:35;;;;;;;5.37;4.20;;;;;;;;;;5016257;28;20453;-61
2023/06/19 12:24:02;;;;;;;5.13;4.07;;;;;;;;;;5016334;28;20933;-61
2023/06/19 12:26:29;;;;;;;3.87;3.57;;;;;;;;;;5016551;28;20451;-61
2023/06/19 12:28:58;;;;;;;4.40;3.83;;;;;;;;;;5016292;28;20466;-60
2023/06/19 12:31:25;;;;;;;4.53;4.20;;;;;;;;;;5017055;28;20537;-60
2023/06/19 12:33:52;;;;;;;8.03;4.90;;;;;;;;;;5016712;28;20635;-60
2023/06/19 12:36:20;;;;;;;10.93;4.03;;;;;;;;;;5016448;28;20447;-60
2023/06/19 12:38:47;;;;;;;3.80;3.50;;;;;;;;;;5016101;28;20491;-61
2023/06/19 12:41:14;;;;;;;4.20;3.80;;;;;;;;;;5016638;28;20486;-61
2023/06/19 12:43:42;;;;;;;5.90;4.57;;;;;;;;;;5015860;28;20452;-61
2023/06/19 12:46:10;;;;;;;7.20;4.60;;;;;;;;;;5031569;28;20514;-60
2023/06/19 12:48:38;;;;;;;4.60;4.03;;;;;;;;;;5035113;28;20794;-60
2023/06/19 12:51:05;;;;;;;4.17;3.87;;;;;;;;;;5034908;28;20455;-61
2023/06/19 12:53:32;;;;;;;5.10;4.60;;;;;;;;;;5035061;28;20965;-61
2023/06/19 12:56:00;;;;;;;4.67;4.27;;;;;;;;;;5035268;28;20435;-61
2023/06/19 12:58:27;;;;;;;10.73;4.60;;;;;;;;;;5035193;28;20481;-61
2023/06/19 13:00:54;;;;;;;5.40;4.90;;;;;;;;;;5035435;28;20428;-61
2023/06/19 13:03:23;;;;;;;5.00;4.50;;;;;;;;;;5034825;28;20456;-61
2023/06/19 13:05:50;;;;;;;9.10;4.80;;;;;;;;;;5035375;28;20434;-61
2023/06/19 13:08:17;;;;;;;5.00;4.50;;;;;;;;;;5035058;28;20422;-61
2023/06/19 13:10:45;;;;;;;5.30;4.80;;;;;;;;;;5034995;28;20425;-61
2023/06/19 13:13:12;;;;;;;7.97;4.50;;;;;;;;;;5034877;28;20453;-61
2023/06/19 13:15:39;;;;;;;5.17;4.77;;;;;;;;;;5034508;28;20435;-60
2023/06/19 13:18:06;;;;;;;5.20;4.70;;;;;;;;;;5034901;28;20474;-61
2023/06/19 13:20:35;;;;;;;8.00;5.17;;;;;;;;;;5035173;28;20808;-61
2023/06/19 13:23:02;;;;;;;5.43;4.93;;;;;;;;;;5034579;28;20451;-61
2023/06/19 13:25:29;;;;;;;5.80;5.17;;;;;;;;;;5034730;28;20442;-61
2023/06/19 13:27:56;;;;;;;7.90;5.77;;;;;;;;;;5034883;28;20444;-61
2023/06/19 13:30:23;;;;;;;4.93;4.53;;;;;;;;;;5035658;28;20432;-60
2023/06/19 13:32:50;;;;;;;7.37;5.10;;;;;;;;;;5035218;28;20446;-60
2023/06/19 13:35:18;;;;;;;5.70;5.20;;;;;;;;;;5035455;28;20424;-61
2023/06/19 13:37:46;;;;;;;7.20;5.60;;;;;;;;;;5035058;28;20487;-61
2023/06/19 13:40:13;;;;;;;7.50;5.03;;;;;;;;;;5034640;28;20430;-61
2023/06/19 13:42:40;;;;;;;6.80;6.07;;;;;;;;;;5034353;28;20424;-61
2023/06/19 13:45:08;;;;;;;5.40;4.93;;;;;;;;;;5033975;28;20543;-59
2023/06/19 13:47:37;;;;;;;8.20;5.50;;;;;;;;;;5034522;28;20443;-73
2023/06/19 13:50:04;;;;;;;5.53;5.03;;;;;;;;;;5035420;28;20431;-61
2023/06/19 13:52:32;;;;;;;6.07;5.47;;;;;;;;;;5035291;28;20430;-61
2023/06/19 13:55:02;;;;;;;7.50;5.87;;;;;;;;;;5034819;28;20930;-61
2023/06/19 13:57:29;;;;;;;5.50;5.00;;;;;;;;;;5033577;28;20401;-61
2023/06/19 13:59:56;;;;;;;8.13;6.37;;;;;;;;;;5034823;28;20413;-61
2023/06/19 14:02:23;;;;;;;7.50;5.70;;;;;;;;;;5034270;28;20444;-59
2023/06/19 14:04:51;;;;;;;8.53;6.20;;;;;;;;;;5034282;28;20457;-59
2023/06/19 14:07:19;;;;;;;5.80;5.20;;;;;;;;;;5034086;28;20415;-61
2023/06/19 14:09:48;;;;;;;7.10;6.40;;;;;;;;;;5035178;28;20433;-61
2023/06/19 14:12:16;;;;;;;8.23;6.27;;;;;;;;;;5034158;28;20924;-60
2023/06/19 14:14:43;;;;;;;6.00;5.43;;;;;;;;;;5034753;28;20425;-60
2023/06/19 14:17:10;;;;;;;6.93;6.27;;;;;;;;;;5034514;28;20453;-61
2023/06/19 14:19:38;;;;;;;6.57;6.07;;;;;;;;;;5033965;28;20484;-61
2023/06/19 14:22:05;;;;;;;6.30;5.80;;;;;;;;;;5033783;28;21022;-61
2023/06/19 14:24:32;;;;;;;5.90;5.40;;;;;;;;;;5034033;28;20451;-60
2023/06/19 14:26:59;;;;;;;6.50;6.00;;;;;;;;;;5034279;28;20444;-59
2023/06/19 14:29:28;;;;;;;6.97;6.27;;;;;;;;;;5033991;28;20457;-61
2023/06/19 14:31:55;;;;;;;6.43;5.93;;;;;;;;;;5034128;28;20442;-59
2023/06/19 14:34:22;;;;;;;8.73;6.57;;;;;;;;;;5034090;28;20449;-59
2023/06/19 14:36:49;;;;;;;6.83;6.23;;;;;;;;;;5033754;28;20441;-60
2023/06/19 14:39:16;;;;;;;6.57;6.03;;;;;;;;;;5033891;28;20481;-60
2023/06/19 14:41:44;;;;;;;7.10;6.40;;;;;;;;;;5034238;28;20441;-60
2023/06/19 14:44:11;;;;;;;6.37;5.77;;;;;;;;;;5033953;28;20472;-60